< < Back
Terminal Aerodrome Forecast


Current Version              Previous Versions:   1  2  3  4  5  6  7  8  9  

Terminal Aerodrome Forecast

267
FTUS42 KCHS 130531
TAFCHS
TAF
KCHS 130531Z 1306/1406 32008KT P6SM SKC
     FM131500 35011G17KT P6SM SKC
     FM132200 01007KT P6SM SKC=

Latest METAR

267
SAUS80 KWBC 131200 CCA
MTRCHS
METAR KCHS 131156Z 32004KT 10SM CLR 00/M02 A3021 RMK AO2 SLP229
T00001017 10050 20000 53033


USA.gov is the U.S. government's official web portal to all federal, state and local government web resources and services.